Time,TemperatureF,DewpointF,PressureIn,WindDirection,WindDirectionDegrees,WindSpeedMPH,WindSpeedGustMPH,Humidity,HourlyPrecipIn,Conditions,Clouds,dailyrainin,SoftwareType,DateUTC
2013-02-16 00:03:00,39.9,38.5,30.17,NNW,346,0.0,0.0,95,0.00,,,0.00,WUHU216DAVISVP2,2013-02-16 08:03:00,
2013-02-16 00:08:00,39.9,38.5,30.17,NNW,346,0.0,0.0,95,0.00,,,0.00,WUHU216DAVISVP2,2013-02-16 08:08:00,
2013-02-16 00:13:00,39.9,38.5,30.17,NNW,347,0.0,0.0,95,0.00,,,0.00,WUHU216DAVISVP2,2013-02-16 08:13:00,
2013-02-16 00:18:00,39.9,38.5,30.17,NNW,346,0.0,0.0,95,0.00,,,0.00,WUHU216DAVISVP2,2013-02-16 08:18:00,
2013-02-16 00:23:00,39.9,38.5,30.17,NNW,347,0.0,0.0,95,0.00,,,0.00,WUHU216DAVISVP2,2013-02-16 08:23:00,
2013-02-16 00:28:00,39.8,38.4,30.17,NNW,347,0.0,0.0,95,0.00,,,0.00,WUHU216DAVISVP2,2013-02-16 08:28:00,
2013-02-16 00:33:00,40.0,38.9,30.17,NNW,347,0.0,0.0,96,0.00,,,0.00,WUHU216DAVISVP2,2013-02-16 08:33:00,
2013-02-16 00:38:00,40.1,39.0,30.17,NNW,347,0.0,0.0,96,0.00,,,0.00,WUHU216DAVISVP2,2013-02-16 08:38:00,
2013-02-16 00:43:00,40.4,39.3,30.17,NNW,347,0.0,0.0,96,0.00,,,0.00,WUHU216DAVISVP2,2013-02-16 08:43:00,
2013-02-16 00:48:00,40.4,39.3,30.17,NNW,346,0.0,0.0,96,0.00,,,0.00,WUHU216DAVISVP2,2013-02-16 08:48:00,
2013-02-16 00:53:00,40.4,39.3,30.16,NNW,347,0.0,0.0,96,0.00,,,0.00,WUHU216DAVISVP2,2013-02-16 08:53:00,
2013-02-16 00:58:00,40.2,38.8,30.16,NNW,346,0.0,0.0,95,0.00,,,0.00,WUHU216DAVISVP2,2013-02-16 08:58:00,
2013-02-16 01:03:00,40.0,38.6,30.16,NNW,347,0.0,0.0,95,0.00,,,0.00,WUHU216DAVISVP2,2013-02-16 09:03:00,
2013-02-16 01:08:00,39.7,38.3,30.16,NNW,346,0.0,0.0,95,0.00,,,0.00,WUHU216DAVISVP2,2013-02-16 09:08:00,
2013-02-16 01:13:00,39.9,38.8,30.16,NNW,347,0.0,0.0,96,0.00,,,0.00,WUHU216DAVISVP2,2013-02-16 09:13:00,
2013-02-16 01:18:00,40.0,38.9,30.16,NNW,347,0.0,0.0,96,0.00,,,0.00,WUHU216DAVISVP2,2013-02-16 09:18:00,
2013-02-16 01:23:00,39.8,38.4,30.16,NNW,347,0.0,0.0,95,0.00,,,0.00,WUHU216DAVISVP2,2013-02-16 09:23:00,
2013-02-16 01:28:00,40.0,38.6,30.16,NNW,347,0.0,0.0,95,0.00,,,0.00,WUHU216DAVISVP2,2013-02-16 09:28:00,
2013-02-16 01:33:00,40.1,39.0,30.16,NNW,346,0.0,0.0,96,0.00,,,0.00,WUHU216DAVISVP2,2013-02-16 09:33:00,
2013-02-16 01:38:00,40.1,39.0,30.16,NNW,347,0.0,0.0,96,0.00,,,0.00,WUHU216DAVISVP2,2013-02-16 09:38:00,
2013-02-16 01:43:00,39.9,38.8,30.16,NNW,346,0.0,0.0,96,0.00,,,0.00,WUHU216DAVISVP2,2013-02-16 09:43:00,
2013-02-16 01:48:00,39.8,38.7,30.16,NNW,347,0.0,0.0,96,0.00,,,0.00,WUHU216DAVISVP2,2013-02-16 09:48:00,
2013-02-16 01:53:00,39.7,38.6,30.16,NNW,347,0.0,0.0,96,0.00,,,0.00,WUHU216DAVISVP2,2013-02-16 09:53:00,
2013-02-16 01:58:00,39.6,38.5,30.15,NNW,347,0.0,2.0,96,0.00,,,0.00,WUHU216DAVISVP2,2013-02-16 09:58:00,
2013-02-16 02:03:00,39.7,38.6,30.16,NNW,347,0.0,2.0,96,0.00,,,0.00,WUHU216DAVISVP2,2013-02-16 10:03:00,
2013-02-16 02:08:00,39.7,38.6,30.16,NNW,347,0.0,0.0,96,0.00,,,0.00,WUHU216DAVISVP2,2013-02-16 10:08:00,
2013-02-16 02:13:00,39.7,38.6,30.16,NNW,346,0.0,0.0,96,0.00,,,0.00,WUHU216DAVISVP2,2013-02-16 10:13:00,
2013-02-16 02:18:00,39.7,38.6,30.16,NNW,347,1.0,1.0,96,0.00,,,0.00,WUHU216DAVISVP2,2013-02-16 10:18:00,
2013-02-16 02:23:00,39.6,38.5,30.16,NNW,347,0.0,2.0,96,0.00,,,0.00,WUHU216DAVISVP2,2013-02-16 10:23:00,
2013-02-16 02:28:00,39.5,38.4,30.16,NNW,347,0.0,2.0,96,0.00,,,0.00,WUHU216DAVISVP2,2013-02-16 10:28:00,
2013-02-16 02:33:00,39.6,38.5,30.16,NNW,347,0.0,0.0,96,0.00,,,0.00,WUHU216DAVISVP2,2013-02-16 10:33:00,
2013-02-16 02:38:00,39.7,38.6,30.16,NNW,347,0.0,1.0,96,0.00,,,0.00,WUHU216DAVISVP2,2013-02-16 10:38:00,
2013-02-16 02:43:00,39.7,38.6,30.15,North,9,0.0,2.0,96,0.00,,,0.00,WUHU216DAVISVP2,2013-02-16 10:43:00,
2013-02-16 02:48:00,39.9,38.8,30.15,ENE,61,0.0,2.0,96,0.00,,,0.00,WUHU216DAVISVP2,2013-02-16 10:48:00,
2013-02-16 02:53:00,40.0,38.9,30.15,East,80,1.0,3.0,96,0.00,,,0.00,WUHU216DAVISVP2,2013-02-16 10:53:00,
2013-02-16 02:58:00,40.0,38.9,30.15,SE,127,0.0,5.0,96,0.00,,,0.00,WUHU216DAVISVP2,2013-02-16 10:58:00,
2013-02-16 03:03:00,39.8,38.7,30.15,SE,128,0.0,5.0,96,0.00,,,0.00,WUHU216DAVISVP2,2013-02-16 11:03:00,
2013-02-16 03:08:00,39.8,38.7,30.14,SE,128,0.0,5.0,96,0.00,,,0.00,WUHU216DAVISVP2,2013-02-16 11:08:00,
2013-02-16 03:13:00,40.0,38.9,30.14,SSE,162,0.0,4.0,96,0.00,,,0.00,WUHU216DAVISVP2,2013-02-16 11:13:00,
2013-02-16 03:18:00,40.1,39.0,30.14,SSE,162,0.0,4.0,96,0.00,,,0.00,WUHU216DAVISVP2,2013-02-16 11:18:00,
2013-02-16 03:23:00,40.2,39.1,30.14,SSE,162,0.0,1.0,96,0.00,,,0.00,WUHU216DAVISVP2,2013-02-16 11:23:00,
2013-02-16 03:28:00,40.4,39.3,30.14,SSE,162,0.0,0.0,96,0.00,,,0.00,WUHU216DAVISVP2,2013-02-16 11:28:00,
2013-02-16 03:33:00,40.6,39.5,30.14,SSE,162,0.0,2.0,96,0.00,,,0.00,WUHU216DAVISVP2,2013-02-16 11:33:00,
2013-02-16 03:38:00,40.8,39.7,30.14,South,173,0.0,4.0,96,0.00,,,0.00,WUHU216DAVISVP2,2013-02-16 11:38:00,
2013-02-16 03:43:00,41.0,39.9,30.14,South,173,0.0,4.0,96,0.00,,,0.00,WUHU216DAVISVP2,2013-02-16 11:43:00,
2013-02-16 03:48:00,41.1,40.0,30.14,South,173,0.0,3.0,96,0.00,,,0.00,WUHU216DAVISVP2,2013-02-16 11:48:00,
2013-02-16 03:53:00,41.2,40.1,30.14,SSE,167,4.0,5.0,96,0.00,,,0.00,WUHU216DAVISVP2,2013-02-16 11:53:00,
2013-02-16 03:58:00,41.4,40.3,30.14,SSE,167,0.0,5.0,96,0.00,,,0.00,WUHU216DAVISVP2,2013-02-16 11:58:00,
2013-02-16 04:03:00,41.5,40.4,30.14,South,184,3.0,4.0,96,0.00,,,0.00,WUHU216DAVISVP2,2013-02-16 12:03:00,
2013-02-16 04:08:00,41.5,40.4,30.14,South,184,3.0,5.0,96,0.00,,,0.00,WUHU216DAVISVP2,2013-02-16 12:08:00,
2013-02-16 04:13:00,41.7,40.6,30.14,SW,236,4.0,9.0,96,0.00,,,0.00,WUHU216DAVISVP2,2013-02-16 12:13:00,
2013-02-16 04:18:00,42.0,40.9,30.14,SSW,202,5.0,9.0,96,0.00,,,0.00,WUHU216DAVISVP2,2013-02-16 12:18:00,
2013-02-16 04:23:00,42.1,41.0,30.14,SSW,210,6.0,7.0,96,0.00,,,0.00,WUHU216DAVISVP2,2013-02-16 12:23:00,
2013-02-16 04:28:00,42.0,40.9,30.14,SSW,210,2.0,10.0,96,0.00,,,0.00,WUHU216DAVISVP2,2013-02-16 12:28:00,
2013-02-16 04:33:00,42.2,41.1,30.14,SSW,199,4.0,10.0,96,0.00,,,0.00,WUHU216DAVISVP2,2013-02-16 12:33:00,
2013-02-16 04:38:00,42.4,41.3,30.14,SSW,196,2.0,8.0,96,0.00,,,0.00,WUHU216DAVISVP2,2013-02-16 12:38:00,
2013-02-16 04:43:00,42.4,42.4,30.14,SW,215,5.0,10.0,100,0.00,,,0.00,WUHU216DAVISVP2,2013-02-16 12:43:00,
2013-02-16 04:48:00,42.5,41.4,30.14,SW,217,1.0,10.0,96,0.00,,,0.00,WUHU216DAVISVP2,2013-02-16 12:48:00,
2013-02-16 04:53:00,42.7,41.3,30.14,SSE,157,0.0,6.0,95,0.00,,,0.00,WUHU216DAVISVP2,2013-02-16 12:53:00,
2013-02-16 04:58:00,42.7,41.3,30.14,South,173,1.0,6.0,95,0.00,,,0.00,WUHU216DAVISVP2,2013-02-16 12:58:00,
2013-02-16 05:03:00,42.8,41.4,30.14,SSW,196,0.0,5.0,95,0.00,,,0.00,WUHU216DAVISVP2,2013-02-16 13:03:00,
2013-02-16 05:08:00,42.9,41.5,30.15,SSW,213,0.0,7.0,95,0.00,,,0.00,WUHU216DAVISVP2,2013-02-16 13:08:00,
2013-02-16 05:13:00,42.9,41.5,30.15,SSW,207,0.0,7.0,95,0.00,,,0.00,WUHU216DAVISVP2,2013-02-16 13:13:00,
2013-02-16 05:18:00,42.9,41.5,30.15,SSW,207,0.0,5.0,95,0.00,,,0.00,WUHU216DAVISVP2,2013-02-16 13:18:00,
2013-02-16 05:23:00,42.9,41.5,30.15,SSW,207,0.0,5.0,95,0.00,,,0.00,WUHU216DAVISVP2,2013-02-16 13:23:00,
2013-02-16 05:28:00,42.9,41.5,30.15,SSW,206,0.0,7.0,95,0.00,,,0.00,WUHU216DAVISVP2,2013-02-16 13:28:00,
2013-02-16 05:33:00,43.0,41.6,30.14,SSW,206,0.0,7.0,95,0.00,,,0.00,WUHU216DAVISVP2,2013-02-16 13:33:00,
2013-02-16 05:38:00,43.0,41.6,30.15,South,183,4.0,6.0,95,0.00,,,0.00,WUHU216DAVISVP2,2013-02-16 13:38:00,
2013-02-16 05:43:00,43.1,41.7,30.14,SSW,192,0.0,6.0,95,0.00,,,0.00,WUHU216DAVISVP2,2013-02-16 13:43:00,
2013-02-16 05:48:00,43.1,41.7,30.14,SSW,192,0.0,5.0,95,0.00,,,0.00,WUHU216DAVISVP2,2013-02-16 13:48:00,
2013-02-16 05:53:00,43.1,41.7,30.15,South,191,0.0,4.0,95,0.00,,,0.00,WUHU216DAVISVP2,2013-02-16 13:53:00,
2013-02-16 05:58:00,43.1,41.7,30.15,SSW,192,3.0,5.0,95,0.00,,,0.00,WUHU216DAVISVP2,2013-02-16 13:58:00,
2013-02-16 06:03:00,43.1,41.7,30.15,South,187,2.0,5.0,95,0.00,,,0.00,WUHU216DAVISVP2,2013-02-16 14:03:00,
2013-02-16 06:08:00,43.1,41.7,30.15,South,187,0.0,5.0,95,0.00,,,0.00,WUHU216DAVISVP2,2013-02-16 14:08:00,
2013-02-16 06:13:00,43.2,41.8,30.15,South,187,0.0,4.0,95,0.00,,,0.00,WUHU216DAVISVP2,2013-02-16 14:13:00,
2013-02-16 06:18:00,43.2,41.8,30.14,South,175,3.0,7.0,95,0.00,,,0.00,WUHU216DAVISVP2,2013-02-16 14:18:00,
2013-02-16 06:23:00,43.2,41.8,30.15,SSE,167,2.0,7.0,95,0.00,,,0.00,WUHU216DAVISVP2,2013-02-16 14:23:00,
2013-02-16 06:29:00,43.3,41.9,30.15,South,187,0.0,6.0,95,0.00,,,0.00,WUHU216DAVISVP2,2013-02-16 14:29:00,
2013-02-16 06:34:00,43.4,42.0,30.14,SSW,207,5.0,7.0,95,0.00,,,0.00,WUHU216DAVISVP2,2013-02-16 14:34:00,
2013-02-16 06:39:00,43.5,42.1,30.14,SSW,202,0.0,7.0,95,0.00,,,0.00,WUHU216DAVISVP2,2013-02-16 14:39:00,
2013-02-16 06:44:00,43.6,42.2,30.15,SSW,204,0.0,9.0,95,0.00,,,0.00,WUHU216DAVISVP2,2013-02-16 14:44:00,
2013-02-16 06:49:00,43.7,42.0,30.14,SW,219,4.0,9.0,94,0.00,,,0.00,WUHU216DAVISVP2,2013-02-16 14:49:00,
2013-02-16 06:54:00,43.7,42.3,30.14,SSW,209,5.0,6.0,95,0.00,,,0.00,WUHU216DAVISVP2,2013-02-16 14:54:00,
2013-02-16 06:59:00,43.8,42.1,30.14,SSW,209,0.0,6.0,94,0.00,,,0.00,WUHU216DAVISVP2,2013-02-16 14:59:00,
2013-02-16 07:04:00,43.8,42.1,30.14,SSW,209,0.0,5.0,94,0.00,,,0.00,WUHU216DAVISVP2,2013-02-16 15:04:00,
2013-02-16 07:09:00,43.8,42.1,30.14,SSW,209,0.0,5.0,94,0.00,,,0.00,WUHU216DAVISVP2,2013-02-16 15:09:00,
2013-02-16 07:14:00,43.8,42.1,30.14,SSW,204,0.0,5.0,94,0.00,,,0.00,WUHU216DAVISVP2,2013-02-16 15:14:00,
2013-02-16 07:19:00,43.8,42.1,30.14,SSW,202,0.0,6.0,94,0.00,,,0.00,WUHU216DAVISVP2,2013-02-16 15:19:00,
2013-02-16 07:24:00,43.8,42.1,30.14,SW,214,0.0,6.0,94,0.00,,,0.00,WUHU216DAVISVP2,2013-02-16 15:24:00,
2013-02-16 07:29:00,43.8,42.1,30.15,South,187,0.0,5.0,94,0.00,,,0.00,WUHU216DAVISVP2,2013-02-16 15:29:00,
2013-02-16 07:34:00,43.8,41.9,30.15,SSW,202,0.0,4.0,93,0.00,,,0.00,WUHU216DAVISVP2,2013-02-16 15:34:00,
2013-02-16 07:39:00,43.8,42.1,30.15,SSW,209,0.0,13.0,94,0.00,,,0.00,WUHU216DAVISVP2,2013-02-16 15:39:00,
2013-02-16 07:44:00,43.9,42.0,30.15,SSW,209,0.0,13.0,93,0.00,,,0.00,WUHU216DAVISVP2,2013-02-16 15:44:00,
2013-02-16 07:49:00,43.9,42.0,30.15,SSW,209,0.0,6.0,93,0.00,,,0.00,WUHU216DAVISVP2,2013-02-16 15:49:00,
2013-02-16 07:54:00,43.9,42.0,30.15,South,179,0.0,5.0,93,0.00,,,0.00,WUHU216DAVISVP2,2013-02-16 15:54:00,
2013-02-16 07:59:00,43.9,42.2,30.15,South,189,0.0,4.0,94,0.00,,,0.00,WUHU216DAVISVP2,2013-02-16 15:59:00,
2013-02-16 08:04:00,43.9,42.2,30.15,SW,215,0.0,7.0,94,0.00,,,0.00,WUHU216DAVISVP2,2013-02-16 16:04:00,
2013-02-16 08:09:00,43.9,42.2,30.15,SW,214,0.0,7.0,94,0.00,,,0.00,WUHU216DAVISVP2,2013-02-16 16:09:00,
2013-02-16 08:14:00,44.0,42.3,30.15,SW,214,0.0,6.0,94,0.00,,,0.00,WUHU216DAVISVP2,2013-02-16 16:14:00,
2013-02-16 08:19:00,44.0,42.3,30.15,SSW,195,0.0,6.0,94,0.00,,,0.00,WUHU216DAVISVP2,2013-02-16 16:19:00,
2013-02-16 08:24:00,44.0,42.3,30.15,SSW,198,3.0,4.0,94,0.00,,,0.00,WUHU216DAVISVP2,2013-02-16 16:24:00,
2013-02-16 08:29:00,44.0,42.3,30.15,SSW,198,0.0,4.0,94,0.00,,,0.00,WUHU216DAVISVP2,2013-02-16 16:29:00,
2013-02-16 08:34:00,44.1,42.4,30.15,SSW,198,0.0,4.0,94,0.00,,,0.00,WUHU216DAVISVP2,2013-02-16 16:34:00,
2013-02-16 08:39:00,44.1,42.4,30.16,SSW,198,0.0,4.0,94,0.00,,,0.00,WUHU216DAVISVP2,2013-02-16 16:39:00,
2013-02-16 08:44:00,44.2,42.5,30.16,SSW,210,3.0,6.0,94,0.00,,,0.00,WUHU216DAVISVP2,2013-02-16 16:44:00,
2013-02-16 08:49:00,44.3,42.4,30.16,SSW,212,1.0,6.0,93,0.00,,,0.00,WUHU216DAVISVP2,2013-02-16 16:49:00,
2013-02-16 08:54:00,44.4,42.5,30.16,SSW,194,0.0,5.0,93,0.00,,,0.00,WUHU216DAVISVP2,2013-02-16 16:54:00,
2013-02-16 08:59:00,44.4,42.5,30.16,SW,215,4.0,7.0,93,0.00,,,0.00,WUHU216DAVISVP2,2013-02-16 16:59:00,
2013-02-16 09:04:00,44.6,42.7,30.16,SSW,210,0.0,9.0,93,0.00,,,0.00,WUHU216DAVISVP2,2013-02-16 17:04:00,
2013-02-16 09:09:00,44.7,42.5,30.16,SW,217,3.0,9.0,92,0.00,,,0.00,WUHU216DAVISVP2,2013-02-16 17:09:00,
2013-02-16 09:14:00,44.7,42.5,30.16,SW,215,2.0,7.0,92,0.00,,,0.00,WUHU216DAVISVP2,2013-02-16 17:14:00,
2013-02-16 09:19:00,44.8,42.6,30.16,SW,214,0.0,7.0,92,0.00,,,0.00,WUHU216DAVISVP2,2013-02-16 17:19:00,
2013-02-16 09:24:00,44.9,42.7,30.16,SW,215,0.0,7.0,92,0.00,,,0.00,WUHU216DAVISVP2,2013-02-16 17:24:00,
2013-02-16 09:29:00,44.9,42.7,30.16,SW,221,0.0,7.0,92,0.00,,,0.00,WUHU216DAVISVP2,2013-02-16 17:29:00,
2013-02-16 09:34:00,45.0,42.5,30.16,SW,220,0.0,7.0,91,0.00,,,0.00,WUHU216DAVISVP2,2013-02-16 17:34:00,
2013-02-16 09:39:00,45.0,42.5,30.16,SW,217,0.0,6.0,91,0.00,,,0.00,WUHU216DAVISVP2,2013-02-16 17:39:00,
2013-02-16 09:44:00,45.0,42.5,30.16,SSW,213,0.0,4.0,91,0.00,,,0.00,WUHU216DAVISVP2,2013-02-16 17:44:00,
2013-02-16 09:49:00,45.1,42.3,30.16,SSE,149,0.0,7.0,90,0.00,,,0.00,WUHU216DAVISVP2,2013-02-16 17:49:00,
2013-02-16 09:54:00,45.1,42.6,30.16,SSE,149,0.0,7.0,91,0.00,,,0.00,WUHU216DAVISVP2,2013-02-16 17:54:00,
2013-02-16 09:59:00,45.1,42.6,30.16,SSE,149,0.0,1.0,91,0.00,,,0.00,WUHU216DAVISVP2,2013-02-16 17:59:00,
2013-02-16 10:04:00,45.1,42.3,30.16,SSE,149,0.0,0.0,90,0.00,,,0.00,WUHU216DAVISVP2,2013-02-16 18:04:00,
2013-02-16 10:09:00,45.1,42.3,30.16,SSE,149,0.0,3.0,90,0.00,,,0.00,WUHU216DAVISVP2,2013-02-16 18:09:00,
2013-02-16 10:14:00,45.1,42.3,30.16,SSE,149,0.0,3.0,90,0.00,,,0.00,WUHU216DAVISVP2,2013-02-16 18:14:00,
2013-02-16 10:19:00,45.1,42.6,30.16,South,175,0.0,9.0,91,0.00,,,0.00,WUHU216DAVISVP2,2013-02-16 18:19:00,
2013-02-16 10:24:00,45.2,42.7,30.16,SW,225,0.0,9.0,91,0.00,,,0.00,WUHU216DAVISVP2,2013-02-16 18:24:00,
2013-02-16 10:29:00,45.2,42.4,30.16,South,171,5.0,7.0,90,0.00,,,0.00,WUHU216DAVISVP2,2013-02-16 18:29:00,
2013-02-16 10:34:00,45.2,42.4,30.15,SW,216,6.0,7.0,90,0.00,,,0.00,WUHU216DAVISVP2,2013-02-16 18:34:00,
2013-02-16 10:39:00,45.2,42.4,30.15,SW,218,2.0,10.0,90,0.00,,,0.00,WUHU216DAVISVP2,2013-02-16 18:39:00,
2013-02-16 10:44:00,45.3,42.5,30.15,SSW,209,0.0,10.0,90,0.00,,,0.00,WUHU216DAVISVP2,2013-02-16 18:44:00,
2013-02-16 10:49:00,45.3,42.5,30.15,South,178,0.0,7.0,90,0.00,,,0.00,WUHU216DAVISVP2,2013-02-16 18:49:00,
2013-02-16 10:54:00,45.2,42.4,30.15,SW,219,0.0,7.0,90,0.00,,,0.00,WUHU216DAVISVP2,2013-02-16 18:54:00,
2013-02-16 10:59:00,45.2,42.4,30.15,SSW,212,5.0,7.0,90,0.00,,,0.00,WUHU216DAVISVP2,2013-02-16 18:59:00,
2013-02-16 11:04:00,45.2,42.1,30.15,SSW,207,4.0,9.0,89,0.00,,,0.00,WUHU216DAVISVP2,2013-02-16 19:04:00,
2013-02-16 11:09:00,45.2,42.1,30.14,SSW,197,4.0,9.0,89,0.00,,,0.00,WUHU216DAVISVP2,2013-02-16 19:09:00,
2013-02-16 11:14:00,45.3,42.2,30.14,SSW,209,0.0,8.0,89,0.00,,,0.00,WUHU216DAVISVP2,2013-02-16 19:14:00,
2013-02-16 11:19:00,45.4,42.3,30.15,South,180,4.0,6.0,89,0.00,,,0.00,WUHU216DAVISVP2,2013-02-16 19:19:00,
2013-02-16 11:24:00,45.5,42.1,30.15,SSW,192,2.0,6.0,88,0.00,,,0.00,WUHU216DAVISVP2,2013-02-16 19:24:00,
2013-02-16 11:29:00,45.6,42.2,30.15,SSW,192,0.0,3.0,88,0.00,,,0.00,WUHU216DAVISVP2,2013-02-16 19:29:00,
2013-02-16 11:34:00,45.6,42.2,30.15,SSW,192,0.0,4.0,88,0.00,,,0.00,WUHU216DAVISVP2,2013-02-16 19:34:00,
2013-02-16 11:39:00,45.8,42.1,30.15,SW,214,0.0,6.0,87,0.00,,,0.00,WUHU216DAVISVP2,2013-02-16 19:39:00,
2013-02-16 11:44:00,45.9,42.5,30.14,SW,215,1.0,6.0,88,0.00,,,0.00,WUHU216DAVISVP2,2013-02-16 19:44:00,
2013-02-16 11:49:00,46.1,42.4,30.14,SSE,163,0.0,5.0,87,0.00,,,0.00,WUHU216DAVISVP2,2013-02-16 19:49:00,
2013-02-16 11:54:00,46.2,42.5,30.14,SSW,198,1.0,5.0,87,0.00,,,0.00,WUHU216DAVISVP2,2013-02-16 19:54:00,
2013-02-16 11:59:00,46.3,42.6,30.14,South,182,0.0,5.0,87,0.00,,,0.00,WUHU216DAVISVP2,2013-02-16 19:59:00,
2013-02-16 12:04:00,46.6,42.9,30.14,South,175,0.0,7.0,87,0.00,,,0.00,WUHU216DAVISVP2,2013-02-16 20:04:00,
2013-02-16 12:09:00,46.9,42.9,30.13,South,175,0.0,7.0,86,0.00,,,0.00,WUHU216DAVISVP2,2013-02-16 20:09:00,
2013-02-16 12:14:00,47.1,42.8,30.13,SSE,148,0.0,7.0,85,0.00,,,0.00,WUHU216DAVISVP2,2013-02-16 20:14:00,
2013-02-16 12:19:00,47.5,43.2,30.13,South,191,0.0,7.0,85,0.00,,,0.00,WUHU216DAVISVP2,2013-02-16 20:19:00,
2013-02-16 12:24:00,48.1,43.5,30.13,SSW,198,2.0,7.0,84,0.00,,,0.00,WUHU216DAVISVP2,2013-02-16 20:24:00,
2013-02-16 12:29:00,48.6,43.4,30.13,SSW,204,2.0,9.0,82,0.00,,,0.00,WUHU216DAVISVP2,2013-02-16 20:29:00,
2013-02-16 12:34:00,48.6,42.7,30.13,SW,219,0.0,10.0,80,0.00,,,0.00,WUHU216DAVISVP2,2013-02-16 20:34:00,
2013-02-16 12:39:00,48.6,42.7,30.12,SSW,197,0.0,10.0,80,0.00,,,0.00,WUHU216DAVISVP2,2013-02-16 20:39:00,
2013-02-16 12:44:00,48.9,43.0,30.12,SSW,203,2.0,10.0,80,0.00,,,0.00,WUHU216DAVISVP2,2013-02-16 20:44:00,
2013-02-16 12:49:00,48.9,42.7,30.12,SW,218,2.0,14.0,79,0.00,,,0.00,WUHU216DAVISVP2,2013-02-16 20:49:00,
2013-02-16 12:54:00,48.7,42.5,30.12,SSW,211,4.0,14.0,79,0.00,,,0.00,WUHU216DAVISVP2,2013-02-16 20:54:00,
2013-02-16 12:59:00,48.8,42.6,30.12,SSW,209,0.0,10.0,79,0.00,,,0.00,WUHU216DAVISVP2,2013-02-16 20:59:00,
2013-02-16 13:04:00,48.8,42.6,30.12,South,188,0.0,9.0,79,0.00,,,0.00,WUHU216DAVISVP2,2013-02-16 21:04:00,
2013-02-16 13:09:00,48.8,42.6,30.12,SSW,192,0.0,9.0,79,0.00,,,0.00,WUHU216DAVISVP2,2013-02-16 21:09:00,
2013-02-16 13:14:00,48.8,42.0,30.11,SSW,207,0.0,10.0,77,0.00,,,0.00,WUHU216DAVISVP2,2013-02-16 21:14:00,
2013-02-16 13:19:00,48.7,41.5,30.11,SSW,207,2.0,10.0,76,0.00,,,0.00,WUHU216DAVISVP2,2013-02-16 21:19:00,
2013-02-16 13:24:00,48.7,41.5,30.11,SSW,205,0.0,9.0,76,0.00,,,0.00,WUHU216DAVISVP2,2013-02-16 21:24:00,
2013-02-16 13:29:00,48.8,41.3,30.11,South,179,0.0,7.0,75,0.00,,,0.00,WUHU216DAVISVP2,2013-02-16 21:29:00,
2013-02-16 13:34:00,49.2,41.7,30.11,SSW,195,4.0,6.0,75,0.00,,,0.00,WUHU216DAVISVP2,2013-02-16 21:34:00,
2013-02-16 13:39:00,49.4,41.5,30.11,WSW,241,3.0,5.0,74,0.00,,,0.00,WUHU216DAVISVP2,2013-02-16 21:39:00,
2013-02-16 13:44:00,49.5,43.0,30.12,NNE,22,3.0,12.0,78,0.00,,,0.00,WUHU216DAVISVP2,2013-02-16 21:44:00,
2013-02-16 13:49:00,48.4,43.2,30.11,NNE,13,1.0,12.0,82,0.00,,,0.00,WUHU216DAVISVP2,2013-02-16 21:49:00,
2013-02-16 13:54:00,47.6,43.0,30.11,NNE,14,1.0,5.0,84,0.00,,,0.00,WUHU216DAVISVP2,2013-02-16 21:54:00,
2013-02-16 13:59:00,47.1,42.5,30.11,North,360,0.0,10.0,84,0.00,,,0.00,WUHU216DAVISVP2,2013-02-16 21:59:00,
2013-02-16 14:04:00,46.7,42.1,30.11,NNW,333,0.0,10.0,84,0.00,,,0.00,WUHU216DAVISVP2,2013-02-16 22:04:00,
2013-02-16 14:09:00,46.3,41.7,30.10,WNW,303,5.0,11.0,84,0.00,,,0.00,WUHU216DAVISVP2,2013-02-16 22:09:00,
2013-02-16 14:14:00,45.8,41.8,30.11,NW,325,4.0,11.0,86,0.00,,,0.00,WUHU216DAVISVP2,2013-02-16 22:14:00,
2013-02-16 14:19:00,45.1,41.4,30.11,NNW,338,12.0,14.0,87,0.00,,,0.00,WUHU216DAVISVP2,2013-02-16 22:19:00,
2013-02-16 14:24:00,44.7,41.3,30.12,WNW,284,2.0,14.0,88,0.00,,,0.00,WUHU216DAVISVP2,2013-02-16 22:24:00,
2013-02-16 14:29:00,44.4,41.3,30.12,NNW,340,0.0,12.0,89,0.04,,,0.04,WUHU216DAVISVP2,2013-02-16 22:29:00,
2013-02-16 14:34:00,44.0,41.2,30.12,North,360,0.0,7.0,90,0.06,,,0.06,WUHU216DAVISVP2,2013-02-16 22:34:00,
2013-02-16 14:39:00,44.0,41.8,30.12,NNE,24,0.0,5.0,92,0.06,,,0.06,WUHU216DAVISVP2,2013-02-16 22:39:00,
2013-02-16 14:44:00,44.3,42.4,30.12,NE,48,0.0,2.0,93,0.06,,,0.06,WUHU216DAVISVP2,2013-02-16 22:44:00,
2013-02-16 14:49:00,44.4,42.5,30.12,NE,47,3.0,3.0,93,0.06,,,0.06,WUHU216DAVISVP2,2013-02-16 22:49:00,
2013-02-16 14:54:00,44.2,42.0,30.12,North,355,0.0,5.0,92,0.06,,,0.06,WUHU216DAVISVP2,2013-02-16 22:54:00,
2013-02-16 14:59:00,44.0,41.8,30.12,North,360,0.0,5.0,92,0.06,,,0.06,WUHU216DAVISVP2,2013-02-16 22:59:00,
2013-02-16 15:04:00,43.8,41.6,30.12,North,360,4.0,5.0,92,0.06,,,0.06,WUHU216DAVISVP2,2013-02-16 23:04:00,
2013-02-16 15:09:00,43.6,41.4,30.12,North,360,0.0,5.0,92,0.06,,,0.06,WUHU216DAVISVP2,2013-02-16 23:09:00,
2013-02-16 15:14:00,43.6,41.4,30.13,North,360,0.0,4.0,92,0.06,,,0.06,WUHU216DAVISVP2,2013-02-16 23:14:00,
2013-02-16 15:19:00,43.5,41.6,30.12,North,360,0.0,3.0,93,0.06,,,0.06,WUHU216DAVISVP2,2013-02-16 23:19:00,
2013-02-16 15:24:00,43.4,41.5,30.12,North,360,0.0,3.0,93,0.06,,,0.06,WUHU216DAVISVP2,2013-02-16 23:24:00,
2013-02-16 15:29:00,43.4,41.5,30.12,North,360,0.0,0.0,93,0.01,,,0.06,WUHU216DAVISVP2,2013-02-16 23:29:00,
2013-02-16 15:34:00,43.5,41.6,30.12,North,360,0.0,0.0,93,0.00,,,0.06,WUHU216DAVISVP2,2013-02-16 23:34:00,
2013-02-16 15:39:00,43.6,41.7,30.12,North,360,0.0,0.0,93,0.00,,,0.06,WUHU216DAVISVP2,2013-02-16 23:39:00,
2013-02-16 15:44:00,43.7,42.0,30.13,North,360,0.0,0.0,94,0.00,,,0.06,WUHU216DAVISVP2,2013-02-16 23:44:00,
2013-02-16 15:49:00,43.7,41.8,30.13,North,360,0.0,0.0,93,0.00,,,0.06,WUHU216DAVISVP2,2013-02-16 23:49:00,
2013-02-16 15:54:00,43.7,41.8,30.12,North,360,0.0,0.0,93,0.00,,,0.06,WUHU216DAVISVP2,2013-02-16 23:54:00,
2013-02-16 15:59:00,43.6,41.7,30.12,North,5,0.0,0.0,93,0.00,,,0.06,WUHU216DAVISVP2,2013-02-16 23:59:00,
2013-02-16 16:04:00,43.6,41.7,30.13,North,5,0.0,0.0,93,0.00,,,0.06,WUHU216DAVISVP2,2013-02-17 00:04:00,
2013-02-16 16:09:00,43.5,41.8,30.13,North,5,0.0,0.0,94,0.01,,,0.07,WUHU216DAVISVP2,2013-02-17 00:09:00,
2013-02-16 16:14:00,43.5,41.8,30.13,North,5,0.0,0.0,94,0.02,,,0.08,WUHU216DAVISVP2,2013-02-17 00:14:00,
2013-02-16 16:19:00,43.5,41.8,30.12,North,360,0.0,0.0,94,0.02,,,0.08,WUHU216DAVISVP2,2013-02-17 00:19:00,
2013-02-16 16:24:00,43.4,41.7,30.12,North,5,0.0,0.0,94,0.03,,,0.09,WUHU216DAVISVP2,2013-02-17 00:24:00,
2013-02-16 16:29:00,43.4,41.7,30.13,North,5,0.0,0.0,94,0.03,,,0.09,WUHU216DAVISVP2,2013-02-17 00:29:00,
2013-02-16 16:34:00,43.4,41.7,30.13,North,360,0.0,0.0,94,0.03,,,0.09,WUHU216DAVISVP2,2013-02-17 00:34:00,
2013-02-16 16:39:00,43.4,41.7,30.13,North,5,0.0,0.0,94,0.04,,,0.10,WUHU216DAVISVP2,2013-02-17 00:39:00,
2013-02-16 16:44:00,43.3,41.6,30.13,North,5,0.0,0.0,94,0.06,,,0.12,WUHU216DAVISVP2,2013-02-17 00:44:00,
2013-02-16 16:49:00,43.3,41.6,30.13,North,5,0.0,0.0,94,0.07,,,0.13,WUHU216DAVISVP2,2013-02-17 00:49:00,
2013-02-16 16:54:00,43.2,41.5,30.13,North,5,0.0,0.0,94,0.08,,,0.14,WUHU216DAVISVP2,2013-02-17 00:54:00,
2013-02-16 16:59:00,43.1,41.4,30.13,North,5,0.0,0.0,94,0.09,,,0.15,WUHU216DAVISVP2,2013-02-17 00:59:00,
2013-02-16 17:04:00,43.1,41.4,30.13,North,5,0.0,0.0,94,0.09,,,0.15,WUHU216DAVISVP2,2013-02-17 01:04:00,
2013-02-16 17:09:00,43.1,41.7,30.13,North,5,0.0,0.0,95,0.08,,,0.15,WUHU216DAVISVP2,2013-02-17 01:09:00,
2013-02-16 17:14:00,43.0,41.6,30.13,North,5,0.0,0.0,95,0.07,,,0.15,WUHU216DAVISVP2,2013-02-17 01:14:00,
2013-02-16 17:19:00,43.0,41.6,30.13,North,360,0.0,0.0,95,0.07,,,0.15,WUHU216DAVISVP2,2013-02-17 01:19:00,
2013-02-16 17:24:00,43.0,41.6,30.13,North,5,0.0,0.0,95,0.07,,,0.16,WUHU216DAVISVP2,2013-02-17 01:24:00,
2013-02-16 17:29:00,42.9,41.5,30.13,North,5,0.0,2.0,95,0.08,,,0.17,WUHU216DAVISVP2,2013-02-17 01:29:00,
2013-02-16 17:34:00,42.9,41.5,30.13,North,5,0.0,2.0,95,0.09,,,0.18,WUHU216DAVISVP2,2013-02-17 01:34:00,
2013-02-16 17:39:00,42.9,41.5,30.13,North,5,0.0,3.0,95,0.09,,,0.19,WUHU216DAVISVP2,2013-02-17 01:39:00,
2013-02-16 17:44:00,42.8,41.4,30.13,North,5,0.0,3.0,95,0.08,,,0.20,WUHU216DAVISVP2,2013-02-17 01:44:00,
2013-02-16 17:49:00,42.7,41.3,30.13,North,360,0.0,0.0,95,0.07,,,0.20,WUHU216DAVISVP2,2013-02-17 01:49:00,
2013-02-16 17:54:00,42.7,41.3,30.13,North,360,0.0,0.0,95,0.06,,,0.20,WUHU216DAVISVP2,2013-02-17 01:54:00,
2013-02-16 17:59:00,42.7,41.3,30.13,North,5,0.0,0.0,95,0.05,,,0.20,WUHU216DAVISVP2,2013-02-17 01:59:00,
2013-02-16 18:04:00,42.6,41.2,30.14,North,360,0.0,0.0,95,0.05,,,0.20,WUHU216DAVISVP2,2013-02-17 02:04:00,
2013-02-16 18:09:00,42.6,41.2,30.14,North,5,0.0,0.0,95,0.05,,,0.20,WUHU216DAVISVP2,2013-02-17 02:09:00,
2013-02-16 18:14:00,42.5,41.1,30.14,North,360,0.0,1.0,95,0.05,,,0.20,WUHU216DAVISVP2,2013-02-17 02:14:00,
2013-02-16 18:19:00,42.4,41.0,30.14,North,5,0.0,1.0,95,0.05,,,0.20,WUHU216DAVISVP2,2013-02-17 02:19:00,
2013-02-16 18:24:00,42.3,40.9,30.14,NNE,28,0.0,0.0,95,0.04,,,0.20,WUHU216DAVISVP2,2013-02-17 02:24:00,
2013-02-16 18:29:00,42.2,40.8,30.14,NNE,30,0.0,2.0,95,0.03,,,0.20,WUHU216DAVISVP2,2013-02-17 02:29:00,
2013-02-16 18:34:00,42.2,40.8,30.14,NNE,29,0.0,2.0,95,0.02,,,0.20,WUHU216DAVISVP2,2013-02-17 02:34:00,
2013-02-16 18:39:00,42.1,40.7,30.14,NNE,29,0.0,0.0,95,0.01,,,0.20,WUHU216DAVISVP2,2013-02-17 02:39:00,
2013-02-16 18:44:00,42.0,40.6,30.14,NNE,29,0.0,2.0,95,0.00,,,0.20,WUHU216DAVISVP2,2013-02-17 02:44:00,
2013-02-16 18:49:00,42.0,40.6,30.15,NNE,29,0.0,2.0,95,0.00,,,0.20,WUHU216DAVISVP2,2013-02-17 02:49:00,
2013-02-16 18:54:00,41.9,40.5,30.15,NNE,30,0.0,0.0,95,0.00,,,0.20,WUHU216DAVISVP2,2013-02-17 02:54:00,
2013-02-16 18:59:00,41.9,40.5,30.15,NNE,29,0.0,0.0,95,0.00,,,0.20,WUHU216DAVISVP2,2013-02-17 02:59:00,
2013-02-16 19:04:00,41.8,40.4,30.15,NNE,30,0.0,1.0,95,0.00,,,0.20,WUHU216DAVISVP2,2013-02-17 03:04:00,
2013-02-16 19:09:00,41.7,40.3,30.15,NNE,30,0.0,1.0,95,0.00,,,0.20,WUHU216DAVISVP2,2013-02-17 03:09:00,
2013-02-16 19:14:00,41.7,40.3,30.15,NNE,30,0.0,1.0,95,0.00,,,0.20,WUHU216DAVISVP2,2013-02-17 03:14:00,
2013-02-16 19:19:00,41.6,40.2,30.15,NE,38,0.0,3.0,95,0.00,,,0.20,WUHU216DAVISVP2,2013-02-17 03:19:00,
2013-02-16 19:24:00,41.6,40.2,30.15,NE,37,0.0,3.0,95,0.00,,,0.20,WUHU216DAVISVP2,2013-02-17 03:24:00,
2013-02-16 19:29:00,41.6,40.2,30.15,NE,38,0.0,0.0,95,0.01,,,0.21,WUHU216DAVISVP2,2013-02-17 03:29:00,
2013-02-16 19:34:00,41.6,40.2,30.15,NE,37,0.0,1.0,95,0.01,,,0.21,WUHU216DAVISVP2,2013-02-17 03:34:00,
2013-02-16 19:39:00,41.5,40.1,30.15,NE,38,0.0,1.0,95,0.02,,,0.22,WUHU216DAVISVP2,2013-02-17 03:39:00,
2013-02-16 19:44:00,41.5,40.1,30.16,NE,46,0.0,1.0,95,0.03,,,0.23,WUHU216DAVISVP2,2013-02-17 03:44:00,
2013-02-16 19:49:00,41.4,40.0,30.16,NE,46,0.0,2.0,95,0.04,,,0.24,WUHU216DAVISVP2,2013-02-17 03:49:00,
2013-02-16 19:54:00,41.4,40.0,30.15,NE,46,0.0,2.0,95,0.04,,,0.24,WUHU216DAVISVP2,2013-02-17 03:54:00,
2013-02-16 19:59:00,41.3,39.9,30.16,NE,45,0.0,1.0,95,0.04,,,0.24,WUHU216DAVISVP2,2013-02-17 03:59:00,
2013-02-16 20:04:00,41.3,39.9,30.15,NE,46,0.0,0.0,95,0.04,,,0.24,WUHU216DAVISVP2,2013-02-17 04:04:00,
2013-02-16 20:09:00,41.2,39.8,30.16,SE,145,0.0,5.0,95,0.04,,,0.24,WUHU216DAVISVP2,2013-02-17 04:09:00,
2013-02-16 20:14:00,41.1,39.7,30.16,SSE,148,0.0,5.0,95,0.04,,,0.24,WUHU216DAVISVP2,2013-02-17 04:14:00,
2013-02-16 20:19:00,41.0,41.0,30.16,SSE,148,0.0,3.0,100,0.04,,,0.24,WUHU216DAVISVP2,2013-02-17 04:19:00,
2013-02-16 20:24:00,41.0,39.6,30.16,SSE,148,0.0,1.0,95,0.04,,,0.24,WUHU216DAVISVP2,2013-02-17 04:24:00,
2013-02-16 20:29:00,40.9,39.5,30.16,SSE,150,0.0,3.0,95,0.03,,,0.24,WUHU216DAVISVP2,2013-02-17 04:29:00,
2013-02-16 20:34:00,40.9,39.5,30.16,SSE,148,2.0,4.0,95,0.02,,,0.24,WUHU216DAVISVP2,2013-02-17 04:34:00,
2013-02-16 20:39:00,40.7,39.3,30.16,SSE,148,0.0,4.0,95,0.02,,,0.24,WUHU216DAVISVP2,2013-02-17 04:39:00,
2013-02-16 20:44:00,40.6,39.2,30.16,SE,134,0.0,4.0,95,0.01,,,0.24,WUHU216DAVISVP2,2013-02-17 04:44:00,
2013-02-16 20:49:00,40.6,39.2,30.16,SE,132,0.0,4.0,95,0.00,,,0.24,WUHU216DAVISVP2,2013-02-17 04:49:00,
2013-02-16 20:54:00,40.5,39.1,30.16,ESE,120,0.0,4.0,95,0.00,,,0.24,WUHU216DAVISVP2,2013-02-17 04:54:00,
2013-02-16 20:59:00,40.5,39.1,30.17,ESE,119,0.0,1.0,95,0.00,,,0.24,WUHU216DAVISVP2,2013-02-17 04:59:00,
2013-02-16 21:00:00,40.5,39.1,30.17,ESE,120,0.0,1.0,95,0.00,,,0.24,WUHU216DAVISVP2,2013-02-17 05:00:00,
2013-02-16 21:05:00,40.4,39.0,30.17,ESE,120,0.0,0.0,95,0.00,,,0.24,WUHU216DAVISVP2,2013-02-17 05:05:00,
2013-02-16 21:10:00,40.2,38.8,30.17,ESE,119,0.0,4.0,95,0.02,,,0.26,WUHU216DAVISVP2,2013-02-17 05:10:00,
2013-02-16 21:15:00,40.0,38.6,30.16,SE,137,0.0,4.0,95,0.03,,,0.27,WUHU216DAVISVP2,2013-02-17 05:15:00,
2013-02-16 21:20:00,39.8,38.4,30.17,SE,137,0.0,3.0,95,0.03,,,0.27,WUHU216DAVISVP2,2013-02-17 05:20:00,
2013-02-16 21:25:00,39.7,38.3,30.17,SE,137,0.0,0.0,95,0.04,,,0.28,WUHU216DAVISVP2,2013-02-17 05:25:00,
2013-02-16 21:30:00,39.6,38.2,30.17,SE,137,0.0,1.0,95,0.04,,,0.28,WUHU216DAVISVP2,2013-02-17 05:30:00,
2013-02-16 21:35:00,39.4,38.0,30.17,SE,137,0.0,1.0,95,0.04,,,0.28,WUHU216DAVISVP2,2013-02-17 05:35:00,
2013-02-16 21:40:00,39.3,37.9,30.17,SE,137,0.0,1.0,95,0.04,,,0.28,WUHU216DAVISVP2,2013-02-17 05:40:00,
2013-02-16 21:45:00,39.2,37.8,30.17,SE,137,0.0,1.0,95,0.04,,,0.28,WUHU216DAVISVP2,2013-02-17 05:45:00,
2013-02-16 21:50:00,39.1,37.7,30.17,SE,137,0.0,0.0,95,0.04,,,0.28,WUHU216DAVISVP2,2013-02-17 05:50:00,
2013-02-16 21:55:00,39.0,37.6,30.17,SE,137,0.0,2.0,95,0.04,,,0.28,WUHU216DAVISVP2,2013-02-17 05:55:00,
2013-02-16 22:00:00,39.0,37.6,30.17,SE,137,0.0,2.0,95,0.04,,,0.28,WUHU216DAVISVP2,2013-02-17 06:00:00,
2013-02-16 22:05:00,39.0,37.6,30.17,SE,137,0.0,0.0,95,0.04,,,0.28,WUHU216DAVISVP2,2013-02-17 06:05:00,
2013-02-16 22:10:00,39.1,37.7,30.18,SE,137,1.0,1.0,95,0.02,,,0.28,WUHU216DAVISVP2,2013-02-17 06:10:00,
2013-02-16 22:15:00,39.1,38.0,30.18,SE,137,0.0,1.0,96,0.01,,,0.28,WUHU216DAVISVP2,2013-02-17 06:15:00,
2013-02-16 22:20:00,39.1,37.7,30.18,SE,137,0.0,2.0,95,0.01,,,0.28,WUHU216DAVISVP2,2013-02-17 06:20:00,
2013-02-16 22:25:00,39.1,37.7,30.18,SE,137,0.0,2.0,95,0.00,,,0.28,WUHU216DAVISVP2,2013-02-17 06:25:00,
2013-02-16 22:30:00,39.1,37.7,30.18,SE,137,0.0,0.0,95,0.00,,,0.28,WUHU216DAVISVP2,2013-02-17 06:30:00,
2013-02-16 22:35:00,39.1,37.7,30.18,SE,141,0.0,5.0,95,0.00,,,0.28,WUHU216DAVISVP2,2013-02-17 06:35:00,
2013-02-16 22:40:00,39.1,37.7,30.18,SE,141,0.0,5.0,95,0.00,,,0.28,WUHU216DAVISVP2,2013-02-17 06:40:00,
2013-02-16 22:45:00,39.0,37.9,30.18,SSE,148,0.0,4.0,96,0.00,,,0.28,WUHU216DAVISVP2,2013-02-17 06:45:00,
2013-02-16 22:50:00,39.0,37.9,30.18,SSE,148,0.0,4.0,96,0.00,,,0.28,WUHU216DAVISVP2,2013-02-17 06:50:00,
2013-02-16 22:55:00,38.9,37.8,30.18,SSE,148,1.0,3.0,96,0.00,,,0.28,WUHU216DAVISVP2,2013-02-17 06:55:00,
2013-02-16 23:00:00,38.8,37.7,30.18,SSE,150,0.0,3.0,96,0.00,,,0.28,WUHU216DAVISVP2,2013-02-17 07:00:00,
2013-02-16 23:05:00,38.8,37.7,30.18,SE,143,0.0,4.0,96,0.00,,,0.28,WUHU216DAVISVP2,2013-02-17 07:05:00,
2013-02-16 23:10:00,38.8,37.4,30.18,SE,142,0.0,4.0,95,0.00,,,0.28,WUHU216DAVISVP2,2013-02-17 07:10:00,
2013-02-16 23:15:00,38.7,37.3,30.18,SE,143,0.0,1.0,95,0.00,,,0.28,WUHU216DAVISVP2,2013-02-17 07:15:00,
2013-02-16 23:20:00,38.6,37.2,30.18,SE,141,0.0,3.0,95,0.00,,,0.28,WUHU216DAVISVP2,2013-02-17 07:20:00,
2013-02-16 23:25:00,38.6,37.2,30.19,SE,141,0.0,3.0,95,0.00,,,0.28,WUHU216DAVISVP2,2013-02-17 07:25:00,
2013-02-16 23:30:00,38.4,37.3,30.19,SE,141,0.0,0.0,96,0.00,,,0.28,WUHU216DAVISVP2,2013-02-17 07:30:00,
2013-02-16 23:35:00,38.3,37.2,30.19,SE,141,0.0,2.0,96,0.00,,,0.28,WUHU216DAVISVP2,2013-02-17 07:35:00,
2013-02-16 23:40:00,38.3,37.2,30.19,SE,141,0.0,2.0,96,0.01,,,0.29,WUHU216DAVISVP2,2013-02-17 07:40:00,
2013-02-16 23:45:00,38.2,37.1,30.19,SE,141,0.0,2.0,96,0.01,,,0.29,WUHU216DAVISVP2,2013-02-17 07:45:00,
2013-02-16 23:50:00,38.2,37.1,30.19,SE,143,0.0,4.0,96,0.01,,,0.29,WUHU216DAVISVP2,2013-02-17 07:50:00,
2013-02-16 23:55:00,38.2,36.9,30.19,SE,143,0.0,4.0,95,0.01,,,0.29,WUHU216DAVISVP2,2013-02-17 07:55:00,